sensor_id;sensor_type;location;lat;lon;timestamp;P1;durP1;ratioP1;P2;durP2;ratioP2
45784;SDS011;31489;51.404;5.474;2022-07-12T00:01:36;6.50;;;1.88;;
45784;SDS011;31489;51.404;5.474;2022-07-12T00:04:01;5.07;;;1.67;;
45784;SDS011;31489;51.404;5.474;2022-07-12T00:06:27;2.22;;;1.30;;
45784;SDS011;31489;51.404;5.474;2022-07-12T00:08:53;2.67;;;1.60;;
45784;SDS011;31489;51.404;5.474;2022-07-12T00:11:18;4.63;;;1.67;;
45784;SDS011;31489;51.404;5.474;2022-07-12T00:13:44;4.88;;;1.50;;
45784;SDS011;31489;51.404;5.474;2022-07-12T00:16:10;4.47;;;1.67;;
45784;SDS011;31489;51.404;5.474;2022-07-12T00:18:36;5.50;;;1.50;;
45784;SDS011;31489;51.404;5.474;2022-07-12T00:21:01;3.95;;;1.80;;
45784;SDS011;31489;51.404;5.474;2022-07-12T00:23:27;3.13;;;1.70;;
45784;SDS011;31489;51.404;5.474;2022-07-12T00:25:53;4.47;;;1.55;;
45784;SDS011;31489;51.404;5.474;2022-07-12T00:28:18;4.22;;;1.73;;
45784;SDS011;31489;51.404;5.474;2022-07-12T00:30:44;3.80;;;1.65;;
45784;SDS011;31489;51.404;5.474;2022-07-12T00:33:10;6.53;;;1.60;;
45784;SDS011;31489;51.404;5.474;2022-07-12T00:35:36;2.05;;;1.70;;
45784;SDS011;31489;51.404;5.474;2022-07-12T00:38:01;3.92;;;2.38;;
45784;SDS011;31489;51.404;5.474;2022-07-12T00:40:27;3.33;;;1.77;;
45784;SDS011;31489;51.404;5.474;2022-07-12T00:42:52;4.93;;;2.20;;
45784;SDS011;31489;51.404;5.474;2022-07-12T00:45:18;3.72;;;2.05;;
45784;SDS011;31489;51.404;5.474;2022-07-12T00:47:44;3.05;;;1.70;;
45784;SDS011;31489;51.404;5.474;2022-07-12T00:50:12;2.42;;;1.88;;
45784;SDS011;31489;51.404;5.474;2022-07-12T00:52:41;7.10;;;1.92;;
45784;SDS011;31489;51.404;5.474;2022-07-12T00:55:07;2.63;;;1.77;;
45784;SDS011;31489;51.404;5.474;2022-07-12T00:57:35;5.07;;;2.28;;
45784;SDS011;31489;51.404;5.474;2022-07-12T01:00:01;2.83;;;2.22;;
45784;SDS011;31489;51.404;5.474;2022-07-12T01:02:29;6.70;;;2.20;;
45784;SDS011;31489;51.404;5.474;2022-07-12T01:04:54;5.55;;;2.17;;
45784;SDS011;31489;51.404;5.474;2022-07-12T01:07:20;4.57;;;1.92;;
45784;SDS011;31489;51.404;5.474;2022-07-12T01:09:49;5.18;;;2.20;;
45784;SDS011;31489;51.404;5.474;2022-07-12T01:12:16;4.43;;;2.30;;
45784;SDS011;31489;51.404;5.474;2022-07-12T01:14:42;2.75;;;1.90;;
45784;SDS011;31489;51.404;5.474;2022-07-12T01:17:09;3.53;;;1.92;;
45784;SDS011;31489;51.404;5.474;2022-07-12T01:19:35;6.03;;;1.95;;
45784;SDS011;31489;51.404;5.474;2022-07-12T01:22:02;2.80;;;2.08;;
45784;SDS011;31489;51.404;5.474;2022-07-12T01:24:35;4.10;;;1.98;;
45784;SDS011;31489;51.404;5.474;2022-07-12T01:27:03;4.07;;;2.10;;
45784;SDS011;31489;51.404;5.474;2022-07-12T01:29:30;4.13;;;1.95;;
45784;SDS011;31489;51.404;5.474;2022-07-12T01:31:56;5.90;;;2.22;;
45784;SDS011;31489;51.404;5.474;2022-07-12T01:34:44;4.25;;;1.88;;
45784;SDS011;31489;51.404;5.474;2022-07-12T01:37:11;3.03;;;1.73;;
45784;SDS011;31489;51.404;5.474;2022-07-12T01:39:39;2.70;;;1.77;;
45784;SDS011;31489;51.404;5.474;2022-07-12T01:42:07;2.50;;;1.67;;
45784;SDS011;31489;51.404;5.474;2022-07-12T01:44:33;1.90;;;1.70;;
45784;SDS011;31489;51.404;5.474;2022-07-12T01:46:59;3.03;;;1.92;;
45784;SDS011;31489;51.404;5.474;2022-07-12T01:49:25;1.90;;;1.70;;
45784;SDS011;31489;51.404;5.474;2022-07-12T01:51:50;1.85;;;1.50;;
45784;SDS011;31489;51.404;5.474;2022-07-12T01:54:16;2.20;;;1.80;;
45784;SDS011;31489;51.404;5.474;2022-07-12T01:56:42;3.40;;;1.70;;
45784;SDS011;31489;51.404;5.474;2022-07-12T01:59:08;1.73;;;1.63;;
45784;SDS011;31489;51.404;5.474;2022-07-12T02:01:34;3.17;;;1.88;;
45784;SDS011;31489;51.404;5.474;2022-07-12T02:04:02;4.55;;;2.47;;
45784;SDS011;31489;51.404;5.474;2022-07-12T02:06:28;2.28;;;2.05;;
45784;SDS011;31489;51.404;5.474;2022-07-12T02:08:55;4.47;;;2.65;;
45784;SDS011;31489;51.404;5.474;2022-07-12T02:11:20;4.07;;;2.10;;
45784;SDS011;31489;51.404;5.474;2022-07-12T02:13:46;3.00;;;2.35;;
45784;SDS011;31489;51.404;5.474;2022-07-12T02:16:12;2.78;;;1.90;;
45784;SDS011;31489;51.404;5.474;2022-07-12T02:18:37;2.35;;;1.80;;
45784;SDS011;31489;51.404;5.474;2022-07-12T02:21:03;2.15;;;1.75;;
45784;SDS011;31489;51.404;5.474;2022-07-12T02:23:29;2.13;;;1.77;;
45784;SDS011;31489;51.404;5.474;2022-07-12T02:25:54;5.07;;;1.80;;
45784;SDS011;31489;51.404;5.474;2022-07-12T02:28:20;2.35;;;2.05;;
45784;SDS011;31489;51.404;5.474;2022-07-12T02:30:45;4.80;;;2.13;;
45784;SDS011;31489;51.404;5.474;2022-07-12T02:33:12;2.25;;;1.90;;
45784;SDS011;31489;51.404;5.474;2022-07-12T02:35:40;2.15;;;1.60;;
45784;SDS011;31489;51.404;5.474;2022-07-12T02:38:06;3.33;;;1.60;;
45784;SDS011;31489;51.404;5.474;2022-07-12T02:40:32;1.70;;;1.60;;
45784;SDS011;31489;51.404;5.474;2022-07-12T02:43:16;3.70;;;1.67;;
45784;SDS011;31489;51.404;5.474;2022-07-12T02:45:42;4.22;;;1.65;;
45784;SDS011;31489;51.404;5.474;2022-07-12T02:48:07;1.88;;;1.63;;
45784;SDS011;31489;51.404;5.474;2022-07-12T02:50:35;2.75;;;1.70;;
45784;SDS011;31489;51.404;5.474;2022-07-12T02:53:01;1.80;;;1.60;;
45784;SDS011;31489;51.404;5.474;2022-07-12T02:55:26;3.55;;;2.00;;
45784;SDS011;31489;51.404;5.474;2022-07-12T02:57:52;2.58;;;1.70;;
45784;SDS011;31489;51.404;5.474;2022-07-12T03:00:18;2.67;;;1.88;;
45784;SDS011;31489;51.404;5.474;2022-07-12T03:02:43;2.17;;;1.85;;
45784;SDS011;31489;51.404;5.474;2022-07-12T03:05:09;2.90;;;1.95;;
45784;SDS011;31489;51.404;5.474;2022-07-12T03:07:34;2.92;;;2.05;;
45784;SDS011;31489;51.404;5.474;2022-07-12T03:10:00;2.10;;;1.90;;
45784;SDS011;31489;51.404;5.474;2022-07-12T03:12:25;3.85;;;2.40;;
45784;SDS011;31489;51.404;5.474;2022-07-12T03:14:51;2.50;;;2.20;;
45784;SDS011;31489;51.404;5.474;2022-07-12T03:17:17;2.65;;;2.45;;
45784;SDS011;31489;51.404;5.474;2022-07-12T03:19:42;2.70;;;2.50;;
45784;SDS011;31489;51.404;5.474;2022-07-12T03:22:08;2.72;;;2.53;;
45784;SDS011;31489;51.404;5.474;2022-07-12T03:24:33;4.97;;;2.65;;
45784;SDS011;31489;51.404;5.474;2022-07-12T03:26:59;6.00;;;2.80;;
45784;SDS011;31489;51.404;5.474;2022-07-12T03:29:26;5.85;;;2.90;;
45784;SDS011;31489;51.404;5.474;2022-07-12T03:31:51;3.58;;;3.20;;
45784;SDS011;31489;51.404;5.474;2022-07-12T03:34:17;5.53;;;3.22;;
45784;SDS011;31489;51.404;5.474;2022-07-12T03:36:42;4.90;;;3.50;;
45784;SDS011;31489;51.404;5.474;2022-07-12T03:39:08;6.78;;;3.55;;
45784;SDS011;31489;51.404;5.474;2022-07-12T03:41:34;5.32;;;3.40;;
45784;SDS011;31489;51.404;5.474;2022-07-12T03:43:59;4.35;;;3.17;;
45784;SDS011;31489;51.404;5.474;2022-07-12T03:46:25;5.53;;;3.25;;
45784;SDS011;31489;51.404;5.474;2022-07-12T03:48:50;3.85;;;3.30;;
45784;SDS011;31489;51.404;5.474;2022-07-12T03:51:16;4.60;;;3.55;;
45784;SDS011;31489;51.404;5.474;2022-07-12T03:53:42;4.38;;;3.53;;
45784;SDS011;31489;51.404;5.474;2022-07-12T03:56:07;4.65;;;3.60;;
45784;SDS011;31489;51.404;5.474;2022-07-12T03:58:33;4.05;;;3.65;;
45784;SDS011;31489;51.404;5.474;2022-07-12T04:00:59;6.47;;;3.53;;
45784;SDS011;31489;51.404;5.474;2022-07-12T04:03:25;3.88;;;3.38;;
45784;SDS011;31489;51.404;5.474;2022-07-12T04:05:50;6.40;;;3.88;;
45784;SDS011;31489;51.404;5.474;2022-07-12T04:08:16;5.22;;;3.60;;
45784;SDS011;31489;51.404;5.474;2022-07-12T04:10:42;4.65;;;3.95;;
45784;SDS011;31489;51.404;5.474;2022-07-12T04:13:07;5.35;;;4.00;;
45784;SDS011;31489;51.404;5.474;2022-07-12T04:15:33;4.38;;;3.85;;
45784;SDS011;31489;51.404;5.474;2022-07-12T04:17:59;4.63;;;3.90;;
45784;SDS011;31489;51.404;5.474;2022-07-12T04:20:25;4.00;;;3.60;;
45784;SDS011;31489;51.404;5.474;2022-07-12T04:22:51;4.93;;;3.95;;
45784;SDS011;31489;51.404;5.474;2022-07-12T04:25:16;5.10;;;3.75;;
45784;SDS011;31489;51.404;5.474;2022-07-12T04:27:42;4.88;;;3.72;;
45784;SDS011;31489;51.404;5.474;2022-07-12T04:30:08;4.13;;;3.72;;
45784;SDS011;31489;51.404;5.474;2022-07-12T04:32:34;4.32;;;3.92;;
45784;SDS011;31489;51.404;5.474;2022-07-12T04:35:00;3.92;;;3.63;;
45784;SDS011;31489;51.404;5.474;2022-07-12T04:37:26;4.90;;;3.70;;
45784;SDS011;31489;51.404;5.474;2022-07-12T04:39:51;4.32;;;3.65;;
45784;SDS011;31489;51.404;5.474;2022-07-12T04:42:17;4.03;;;3.63;;
45784;SDS011;31489;51.404;5.474;2022-07-12T04:44:43;5.00;;;4.28;;
45784;SDS011;31489;51.404;5.474;2022-07-12T04:47:08;5.03;;;4.30;;
45784;SDS011;31489;51.404;5.474;2022-07-12T04:49:35;5.03;;;4.55;;
45784;SDS011;31489;51.404;5.474;2022-07-12T04:52:01;4.50;;;4.10;;
45784;SDS011;31489;51.404;5.474;2022-07-12T04:54:27;5.18;;;4.65;;
45784;SDS011;31489;51.404;5.474;2022-07-12T04:56:53;5.32;;;4.82;;
45784;SDS011;31489;51.404;5.474;2022-07-12T04:59:18;5.63;;;4.75;;
45784;SDS011;31489;51.404;5.474;2022-07-12T05:01:44;6.40;;;5.30;;
45784;SDS011;31489;51.404;5.474;2022-07-12T05:04:10;6.38;;;5.78;;
45784;SDS011;31489;51.404;5.474;2022-07-12T05:06:36;6.70;;;6.00;;
45784;SDS011;31489;51.404;5.474;2022-07-12T05:09:01;8.15;;;7.30;;
45784;SDS011;31489;51.404;5.474;2022-07-12T05:11:27;7.05;;;6.45;;
45784;SDS011;31489;51.404;5.474;2022-07-12T05:13:53;11.65;;;8.10;;
45784;SDS011;31489;51.404;5.474;2022-07-12T05:16:18;8.95;;;7.55;;
45784;SDS011;31489;51.404;5.474;2022-07-12T05:18:44;9.93;;;8.90;;
45784;SDS011;31489;51.404;5.474;2022-07-12T05:21:09;10.07;;;9.18;;
45784;SDS011;31489;51.404;5.474;2022-07-12T05:23:36;10.45;;;9.27;;
45784;SDS011;31489;51.404;5.474;2022-07-12T05:26:01;10.27;;;9.30;;
45784;SDS011;31489;51.404;5.474;2022-07-12T05:28:27;10.75;;;9.75;;
45784;SDS011;31489;51.404;5.474;2022-07-12T05:30:52;10.85;;;9.85;;
45784;SDS011;31489;51.404;5.474;2022-07-12T05:33:18;11.50;;;10.45;;
45784;SDS011;31489;51.404;5.474;2022-07-12T05:35:44;11.60;;;10.10;;
45784;SDS011;31489;51.404;5.474;2022-07-12T05:38:09;13.48;;;10.57;;
45784;SDS011;31489;51.404;5.474;2022-07-12T05:40:35;12.90;;;11.70;;
45784;SDS011;31489;51.404;5.474;2022-07-12T05:43:01;11.95;;;10.82;;
45784;SDS011;31489;51.404;5.474;2022-07-12T05:45:26;12.05;;;10.77;;
45784;SDS011;31489;51.404;5.474;2022-07-12T05:47:52;11.38;;;9.95;;
45784;SDS011;31489;51.404;5.474;2022-07-12T05:50:18;11.25;;;10.23;;
45784;SDS011;31489;51.404;5.474;2022-07-12T05:52:43;15.65;;;10.23;;
45784;SDS011;31489;51.404;5.474;2022-07-12T05:55:27;10.63;;;9.65;;
45784;SDS011;31489;51.404;5.474;2022-07-12T05:57:53;11.07;;;10.05;;
45784;SDS011;31489;51.404;5.474;2022-07-12T06:00:19;10.32;;;9.43;;
45784;SDS011;31489;51.404;5.474;2022-07-12T06:02:44;10.00;;;9.10;;
45784;SDS011;31489;51.404;5.474;2022-07-12T06:05:13;11.02;;;9.02;;
45784;SDS011;31489;51.404;5.474;2022-07-12T06:07:38;12.32;;;9.80;;
45784;SDS011;31489;51.404;5.474;2022-07-12T06:10:04;10.63;;;9.63;;
45784;SDS011;31489;51.404;5.474;2022-07-12T06:12:30;13.27;;;8.88;;
45784;SDS011;31489;51.404;5.474;2022-07-12T06:14:56;9.13;;;8.23;;
45784;SDS011;31489;51.404;5.474;2022-07-12T06:17:21;9.70;;;8.70;;
45784;SDS011;31489;51.404;5.474;2022-07-12T06:19:48;10.18;;;9.18;;
45784;SDS011;31489;51.404;5.474;2022-07-12T06:22:14;9.93;;;8.85;;
45784;SDS011;31489;51.404;5.474;2022-07-12T06:24:40;8.60;;;7.78;;
45784;SDS011;31489;51.404;5.474;2022-07-12T06:27:06;7.20;;;6.55;;
45784;SDS011;31489;51.404;5.474;2022-07-12T06:29:31;9.25;;;8.38;;
45784;SDS011;31489;51.404;5.474;2022-07-12T06:31:57;6.55;;;5.95;;
45784;SDS011;31489;51.404;5.474;2022-07-12T06:34:23;9.15;;;7.57;;
45784;SDS011;31489;51.404;5.474;2022-07-12T06:36:48;9.20;;;8.30;;
45784;SDS011;31489;51.404;5.474;2022-07-12T06:39:14;8.90;;;8.00;;
45784;SDS011;31489;51.404;5.474;2022-07-12T06:41:39;9.60;;;8.45;;
45784;SDS011;31489;51.404;5.474;2022-07-12T06:44:05;9.10;;;8.05;;
45784;SDS011;31489;51.404;5.474;2022-07-12T06:46:31;8.43;;;7.63;;
45784;SDS011;31489;51.404;5.474;2022-07-12T06:48:56;8.77;;;7.88;;
45784;SDS011;31489;51.404;5.474;2022-07-12T06:51:22;8.23;;;7.15;;
45784;SDS011;31489;51.404;5.474;2022-07-12T06:53:48;8.55;;;7.75;;
45784;SDS011;31489;51.404;5.474;2022-07-12T06:56:13;7.80;;;7.10;;
45784;SDS011;31489;51.404;5.474;2022-07-12T06:58:40;7.30;;;6.55;;
45784;SDS011;31489;51.404;5.474;2022-07-12T07:01:05;8.73;;;6.90;;
45784;SDS011;31489;51.404;5.474;2022-07-12T07:03:31;6.38;;;5.18;;
45784;SDS011;31489;51.404;5.474;2022-07-12T07:05:57;6.53;;;5.72;;
45784;SDS011;31489;51.404;5.474;2022-07-12T07:08:24;6.80;;;6.20;;
45784;SDS011;31489;51.404;5.474;2022-07-12T07:10:51;6.32;;;5.80;;
45784;SDS011;31489;51.404;5.474;2022-07-12T07:13:18;6.45;;;5.85;;
45784;SDS011;31489;51.404;5.474;2022-07-12T07:15:44;11.93;;;9.75;;
45784;SDS011;31489;51.404;5.474;2022-07-12T07:18:10;9.00;;;7.70;;
45784;SDS011;31489;51.404;5.474;2022-07-12T07:20:37;8.55;;;6.78;;
45784;SDS011;31489;51.404;5.474;2022-07-12T07:23:05;9.48;;;5.95;;
45784;SDS011;31489;51.404;5.474;2022-07-12T07:25:32;12.27;;;6.72;;
45784;SDS011;31489;51.404;5.474;2022-07-12T07:27:57;7.40;;;5.20;;
45784;SDS011;31489;51.404;5.474;2022-07-12T07:30:23;7.43;;;4.03;;
45784;SDS011;31489;51.404;5.474;2022-07-12T07:33:07;4.20;;;3.70;;
45784;SDS011;31489;51.404;5.474;2022-07-12T07:35:33;4.35;;;3.95;;
45784;SDS011;31489;51.404;5.474;2022-07-12T07:37:58;4.10;;;3.67;;
45784;SDS011;31489;51.404;5.474;2022-07-12T07:40:24;4.47;;;3.75;;
45784;SDS011;31489;51.404;5.474;2022-07-12T07:42:50;3.05;;;2.75;;
45784;SDS011;31489;51.404;5.474;2022-07-12T07:45:15;3.92;;;3.22;;
45784;SDS011;31489;51.404;5.474;2022-07-12T07:47:44;3.70;;;2.78;;
45784;SDS011;31489;51.404;5.474;2022-07-12T07:50:14;5.85;;;3.30;;
45784;SDS011;31489;51.404;5.474;2022-07-12T07:52:40;4.07;;;2.58;;
45784;SDS011;31489;51.404;5.474;2022-07-12T07:55:06;3.20;;;2.90;;
45784;SDS011;31489;51.404;5.474;2022-07-12T07:57:32;3.35;;;3.00;;
45784;SDS011;31489;51.404;5.474;2022-07-12T07:59:58;4.50;;;2.67;;
45784;SDS011;31489;51.404;5.474;2022-07-12T08:02:24;4.38;;;2.70;;
45784;SDS011;31489;51.404;5.474;2022-07-12T08:04:49;3.78;;;2.78;;
45784;SDS011;31489;51.404;5.474;2022-07-12T08:07:15;3.25;;;2.95;;
45784;SDS011;31489;51.404;5.474;2022-07-12T08:09:41;3.58;;;2.83;;
45784;SDS011;31489;51.404;5.474;2022-07-12T08:12:07;3.35;;;3.05;;
45784;SDS011;31489;51.404;5.474;2022-07-12T08:14:33;2.85;;;2.53;;
45784;SDS011;31489;51.404;5.474;2022-07-12T08:16:59;5.78;;;2.30;;
45784;SDS011;31489;51.404;5.474;2022-07-12T08:19:24;2.53;;;2.33;;
45784;SDS011;31489;51.404;5.474;2022-07-12T08:21:50;2.83;;;2.40;;
45784;SDS011;31489;51.404;5.474;2022-07-12T08:24:15;2.70;;;2.35;;
45784;SDS011;31489;51.404;5.474;2022-07-12T08:26:41;3.13;;;1.92;;
45784;SDS011;31489;51.404;5.474;2022-07-12T08:29:07;2.20;;;2.00;;
45784;SDS011;31489;51.404;5.474;2022-07-12T08:31:33;2.78;;;2.20;;
45784;SDS011;31489;51.404;5.474;2022-07-12T08:33:59;4.50;;;2.20;;
45784;SDS011;31489;51.404;5.474;2022-07-12T08:36:25;2.30;;;2.10;;
45784;SDS011;31489;51.404;5.474;2022-07-12T08:38:50;2.47;;;2.22;;
45784;SDS011;31489;51.404;5.474;2022-07-12T08:41:16;2.47;;;2.08;;
45784;SDS011;31489;51.404;5.474;2022-07-12T08:43:42;2.63;;;1.80;;
45784;SDS011;31489;51.404;5.474;2022-07-12T08:46:08;5.95;;;2.75;;
45784;SDS011;31489;51.404;5.474;2022-07-12T08:48:35;2.75;;;2.22;;
45784;SDS011;31489;51.404;5.474;2022-07-12T08:51:03;3.38;;;1.83;;
45784;SDS011;31489;51.404;5.474;2022-07-12T08:53:31;2.33;;;2.13;;
45784;SDS011;31489;51.404;5.474;2022-07-12T08:55:57;5.38;;;2.05;;
45784;SDS011;31489;51.404;5.474;2022-07-12T08:58:23;3.33;;;2.67;;
45784;SDS011;31489;51.404;5.474;2022-07-12T09:00:48;3.58;;;2.90;;
45784;SDS011;31489;51.404;5.474;2022-07-12T09:03:15;3.75;;;2.70;;
45784;SDS011;31489;51.404;5.474;2022-07-12T09:05:54;2.97;;;2.30;;
45784;SDS011;31489;51.404;5.474;2022-07-12T09:10:56;4.47;;;2.30;;
45784;SDS011;31489;51.404;5.474;2022-07-12T09:13:47;3.42;;;2.40;;
45784;SDS011;31489;51.404;5.474;2022-07-12T09:16:24;4.15;;;2.28;;
45784;SDS011;31489;51.404;5.474;2022-07-12T09:18:51;3.10;;;2.40;;
45784;SDS011;31489;51.404;5.474;2022-07-12T09:21:36;3.97;;;3.38;;
45784;SDS011;31489;51.404;5.474;2022-07-12T09:24:02;4.78;;;3.38;;
45784;SDS011;31489;51.404;5.474;2022-07-12T09:26:31;3.00;;;2.70;;
45784;SDS011;31489;51.404;5.474;2022-07-12T09:29:04;3.97;;;2.72;;
45784;SDS011;31489;51.404;5.474;2022-07-12T09:31:47;5.05;;;3.55;;
45784;SDS011;31489;51.404;5.474;2022-07-12T09:34:32;3.55;;;2.97;;
45784;SDS011;31489;51.404;5.474;2022-07-12T09:37:17;4.97;;;3.22;;
45784;SDS011;31489;51.404;5.474;2022-07-12T09:39:43;5.38;;;2.90;;
45784;SDS011;31489;51.404;5.474;2022-07-12T09:42:09;3.05;;;2.75;;
45784;SDS011;31489;51.404;5.474;2022-07-12T09:44:36;4.47;;;3.30;;
45784;SDS011;31489;51.404;5.474;2022-07-12T09:47:02;3.67;;;2.72;;
45784;SDS011;31489;51.404;5.474;2022-07-12T09:49:28;3.15;;;2.65;;
45784;SDS011;31489;51.404;5.474;2022-07-12T09:51:55;2.72;;;2.53;;
45784;SDS011;31489;51.404;5.474;2022-07-12T09:54:30;2.97;;;2.70;;
45784;SDS011;31489;51.404;5.474;2022-07-12T09:57:00;2.70;;;2.33;;
45784;SDS011;31489;51.404;5.474;2022-07-12T09:59:28;6.75;;;2.58;;
45784;SDS011;31489;51.404;5.474;2022-07-12T10:01:56;4.13;;;2.42;;
45784;SDS011;31489;51.404;5.474;2022-07-12T10:04:24;3.20;;;2.90;;
45784;SDS011;31489;51.404;5.474;2022-07-12T10:06:54;3.47;;;2.80;;
45784;SDS011;31489;51.404;5.474;2022-07-12T10:09:19;2.53;;;2.20;;
45784;SDS011;31489;51.404;5.474;2022-07-12T10:11:46;4.32;;;3.30;;
45784;SDS011;31489;51.404;5.474;2022-07-12T10:14:13;4.95;;;2.88;;
45784;SDS011;31489;51.404;5.474;2022-07-12T10:16:41;3.53;;;3.22;;
45784;SDS011;31489;51.404;5.474;2022-07-12T10:19:23;4.05;;;3.20;;
45784;SDS011;31489;51.404;5.474;2022-07-12T10:21:51;5.97;;;3.63;;
45784;SDS011;31489;51.404;5.474;2022-07-12T10:26:56;4.00;;;3.45;;
45784;SDS011;31489;51.404;5.474;2022-07-12T10:29:22;3.63;;;2.90;;
45784;SDS011;31489;51.404;5.474;2022-07-12T10:31:48;4.50;;;2.85;;
45784;SDS011;31489;51.404;5.474;2022-07-12T10:34:21;2.70;;;2.50;;
45784;SDS011;31489;51.404;5.474;2022-07-12T10:39:21;4.90;;;2.83;;
45784;SDS011;31489;51.404;5.474;2022-07-12T10:44:37;5.20;;;2.45;;
45784;SDS011;31489;51.404;5.474;2022-07-12T10:47:05;3.63;;;2.75;;
45784;SDS011;31489;51.404;5.474;2022-07-12T10:49:33;2.58;;;2.38;;
45784;SDS011;31489;51.404;5.474;2022-07-12T10:54:36;3.88;;;2.22;;
45784;SDS011;31489;51.404;5.474;2022-07-12T10:57:05;3.05;;;2.20;;
45784;SDS011;31489;51.404;5.474;2022-07-12T10:59:35;5.53;;;2.30;;
45784;SDS011;31489;51.404;5.474;2022-07-12T11:02:02;2.78;;;2.03;;
45784;SDS011;31489;51.404;5.474;2022-07-12T11:04:29;1.88;;;1.73;;
45784;SDS011;31489;51.404;5.474;2022-07-12T11:06:55;3.72;;;1.48;;
45784;SDS011;31489;51.404;5.474;2022-07-12T11:09:22;1.55;;;1.45;;
45784;SDS011;31489;51.404;5.474;2022-07-12T11:11:49;2.72;;;1.48;;
45784;SDS011;31489;51.404;5.474;2022-07-12T11:14:23;2.17;;;1.60;;
45784;SDS011;31489;51.404;5.474;2022-07-12T11:16:51;5.38;;;1.40;;
45784;SDS011;31489;51.404;5.474;2022-07-12T11:19:36;3.83;;;1.80;;
45784;SDS011;31489;51.404;5.474;2022-07-12T11:22:02;1.75;;;1.48;;
45784;SDS011;31489;51.404;5.474;2022-07-12T11:24:28;3.35;;;1.42;;
45784;SDS011;31489;51.404;5.474;2022-07-12T11:26:55;3.53;;;1.75;;
45784;SDS011;31489;51.404;5.474;2022-07-12T11:29:21;1.65;;;1.55;;
45784;SDS011;31489;51.404;5.474;2022-07-12T11:31:47;1.85;;;1.40;;
45784;SDS011;31489;51.404;5.474;2022-07-12T11:34:20;1.40;;;1.30;;
45784;SDS011;31489;51.404;5.474;2022-07-12T11:36:50;1.48;;;1.38;;
45784;SDS011;31489;51.404;5.474;2022-07-12T11:39:33;2.00;;;1.45;;
45784;SDS011;31489;51.404;5.474;2022-07-12T11:42:00;2.42;;;1.70;;
45784;SDS011;31489;51.404;5.474;2022-07-12T11:44:45;1.60;;;1.48;;
45784;SDS011;31489;51.404;5.474;2022-07-12T11:47:13;1.98;;;1.88;;
45784;SDS011;31489;51.404;5.474;2022-07-12T11:49:46;1.80;;;1.20;;
45784;SDS011;31489;51.404;5.474;2022-07-12T11:52:17;2.55;;;1.35;;
45784;SDS011;31489;51.404;5.474;2022-07-12T11:54:44;2.00;;;1.70;;
45784;SDS011;31489;51.404;5.474;2022-07-12T11:57:10;1.80;;;1.63;;
45784;SDS011;31489;51.404;5.474;2022-07-12T11:59:37;2.30;;;1.48;;
45784;SDS011;31489;51.404;5.474;2022-07-12T12:02:13;3.47;;;1.70;;
45784;SDS011;31489;51.404;5.474;2022-07-12T12:04:44;2.13;;;1.70;;
45784;SDS011;31489;51.404;5.474;2022-07-12T12:07:14;1.83;;;1.73;;
45784;SDS011;31489;51.404;5.474;2022-07-12T12:15:11;3.50;;;1.58;;
45784;SDS011;31489;51.404;5.474;2022-07-12T12:17:42;1.50;;;1.40;;
45784;SDS011;31489;51.404;5.474;2022-07-12T12:20:11;4.63;;;1.40;;
45784;SDS011;31489;51.404;5.474;2022-07-12T12:22:40;1.60;;;1.45;;
45784;SDS011;31489;51.404;5.474;2022-07-12T12:25:07;8.20;;;1.80;;
45784;SDS011;31489;51.404;5.474;2022-07-12T12:30:29;3.63;;;1.92;;
45784;SDS011;31489;51.404;5.474;2022-07-12T12:32:58;2.03;;;1.90;;
45784;SDS011;31489;51.404;5.474;2022-07-12T12:35:35;2.22;;;1.70;;
45784;SDS011;31489;51.404;5.474;2022-07-12T12:38:11;4.22;;;1.80;;
45784;SDS011;31489;51.404;5.474;2022-07-12T12:40:38;2.03;;;1.90;;
45784;SDS011;31489;51.404;5.474;2022-07-12T12:43:05;2.67;;;2.15;;
45784;SDS011;31489;51.404;5.474;2022-07-12T12:45:32;3.88;;;2.33;;
45784;SDS011;31489;51.404;5.474;2022-07-12T12:47:59;3.92;;;1.67;;
45784;SDS011;31489;51.404;5.474;2022-07-12T12:50:48;1.98;;;1.70;;
45784;SDS011;31489;51.404;5.474;2022-07-12T12:53:17;1.60;;;1.50;;
45784;SDS011;31489;51.404;5.474;2022-07-12T12:55:45;2.80;;;1.60;;
45784;SDS011;31489;51.404;5.474;2022-07-12T12:58:12;1.65;;;1.55;;
45784;SDS011;31489;51.404;5.474;2022-07-12T13:00:41;1.58;;;1.48;;
45784;SDS011;31489;51.404;5.474;2022-07-12T13:03:09;1.92;;;1.73;;
45784;SDS011;31489;51.404;5.474;2022-07-12T13:05:36;2.80;;;1.70;;
45784;SDS011;31489;51.404;5.474;2022-07-12T13:08:03;2.35;;;1.40;;
45784;SDS011;31489;51.404;5.474;2022-07-12T13:10:30;2.00;;;1.55;;
45784;SDS011;31489;51.404;5.474;2022-07-12T13:12:57;2.42;;;1.55;;
45784;SDS011;31489;51.404;5.474;2022-07-12T13:15:24;1.50;;;1.40;;
45784;SDS011;31489;51.404;5.474;2022-07-12T13:17:50;6.57;;;1.55;;
45784;SDS011;31489;51.404;5.474;2022-07-12T13:20:16;1.48;;;1.38;;
45784;SDS011;31489;51.404;5.474;2022-07-12T13:22:41;1.52;;;1.42;;
45784;SDS011;31489;51.404;5.474;2022-07-12T13:25:08;1.60;;;1.38;;
45784;SDS011;31489;51.404;5.474;2022-07-12T13:27:35;3.63;;;1.95;;
45784;SDS011;31489;51.404;5.474;2022-07-12T13:30:02;2.00;;;1.80;;
45784;SDS011;31489;51.404;5.474;2022-07-12T13:32:28;1.83;;;1.73;;
45784;SDS011;31489;51.404;5.474;2022-07-12T13:34:53;2.95;;;1.95;;
45784;SDS011;31489;51.404;5.474;2022-07-12T13:37:19;1.75;;;1.20;;
45784;SDS011;31489;51.404;5.474;2022-07-12T13:39:45;1.67;;;1.20;;
45784;SDS011;31489;51.404;5.474;2022-07-12T13:42:29;1.70;;;1.60;;
45784;SDS011;31489;51.404;5.474;2022-07-12T13:44:54;1.60;;;1.50;;
45784;SDS011;31489;51.404;5.474;2022-07-12T13:47:20;1.60;;;1.50;;
45784;SDS011;31489;51.404;5.474;2022-07-12T13:49:47;1.65;;;1.55;;
45784;SDS011;31489;51.404;5.474;2022-07-12T13:52:13;2.20;;;1.80;;
45784;SDS011;31489;51.404;5.474;2022-07-12T13:54:39;2.05;;;1.85;;
45784;SDS011;31489;51.404;5.474;2022-07-12T13:57:04;2.78;;;1.90;;
45784;SDS011;31489;51.404;5.474;2022-07-12T13:59:30;2.10;;;1.90;;
45784;SDS011;31489;51.404;5.474;2022-07-12T14:01:56;2.33;;;1.88;;
45784;SDS011;31489;51.404;5.474;2022-07-12T14:04:22;2.28;;;2.05;;
45784;SDS011;31489;51.404;5.474;2022-07-12T14:06:47;6.10;;;2.45;;
45784;SDS011;31489;51.404;5.474;2022-07-12T14:09:14;2.28;;;2.08;;
45784;SDS011;31489;51.404;5.474;2022-07-12T14:11:40;2.80;;;1.80;;
45784;SDS011;31489;51.404;5.474;2022-07-12T14:14:06;1.85;;;1.75;;
45784;SDS011;31489;51.404;5.474;2022-07-12T14:16:32;6.50;;;2.40;;
45784;SDS011;31489;51.404;5.474;2022-07-12T14:18:58;3.97;;;1.73;;
45784;SDS011;31489;51.404;5.474;2022-07-12T14:21:26;2.20;;;2.00;;
45784;SDS011;31489;51.404;5.474;2022-07-12T14:23:52;4.25;;;2.10;;
45784;SDS011;31489;51.404;5.474;2022-07-12T14:26:18;2.63;;;2.30;;
45784;SDS011;31489;51.404;5.474;2022-07-12T14:28:44;2.50;;;2.10;;
45784;SDS011;31489;51.404;5.474;2022-07-12T14:31:10;2.38;;;1.92;;
45784;SDS011;31489;51.404;5.474;2022-07-12T14:33:36;5.38;;;1.98;;
45784;SDS011;31489;51.404;5.474;2022-07-12T14:36:02;2.00;;;1.90;;
45784;SDS011;31489;51.404;5.474;2022-07-12T14:38:28;2.28;;;2.08;;
45784;SDS011;31489;51.404;5.474;2022-07-12T14:40:54;4.00;;;2.05;;
45784;SDS011;31489;51.404;5.474;2022-07-12T14:43:20;2.30;;;2.10;;
45784;SDS011;31489;51.404;5.474;2022-07-12T14:45:45;2.67;;;1.85;;
45784;SDS011;31489;51.404;5.474;2022-07-12T14:48:11;3.75;;;2.15;;
45784;SDS011;31489;51.404;5.474;2022-07-12T14:50:37;7.07;;;2.22;;
45784;SDS011;31489;51.404;5.474;2022-07-12T14:53:03;2.67;;;2.20;;
45784;SDS011;31489;51.404;5.474;2022-07-12T14:55:29;2.28;;;2.15;;
45784;SDS011;31489;51.404;5.474;2022-07-12T14:57:55;2.00;;;1.90;;
45784;SDS011;31489;51.404;5.474;2022-07-12T15:00:22;2.28;;;2.10;;
45784;SDS011;31489;51.404;5.474;2022-07-12T15:02:47;4.68;;;2.33;;
45784;SDS011;31489;51.404;5.474;2022-07-12T15:05:13;2.72;;;2.22;;
45784;SDS011;31489;51.404;5.474;2022-07-12T15:07:39;2.28;;;2.05;;